Terminal Aerodrome Forecast
Issued by NWS Cleveland, OH

Home | Current Version | Previous Version | Graphics & Text | Print | Product List | Glossary On
Versions: 1 2 3 4 5 6 7 8 9 10 11 12 13 14 15 16 17 18 19 20 21 22 23 24 25 26 27 28
000
FTUS41 KCLE 260900 AAA
TAFCAK
TAF AMD
KCAK 260909Z 2609/2706 20006KT P6SM BKN080 BKN250
     FM261400 23008KT P6SM SCT050 BKN090
     FM261900 23012KT P6SM BKN050
     FM262200 23012KT P6SM VCTS BKN040CB
     FM270100 21008KT P6SM VCSH OVC035=

USA.gov is the U.S. government's official web portal to all federal, state and local government web resources and services.